Terminal Aerodrome Forecast
Issued by NWS

Home | Current Version | Previous Version | Graphics & Text | Print | Product List | Glossary On
Versions: 1 2 3 4 5 6 7 8 9 10 11 12 13 14 15 16 17 18
000
FTUS43 KGRB 251700
TAFAUW
TAF
KAUW 251725Z 2518/2618 25012G20KT 6SM BR OVC008
     FM252000 25016G24KT P6SM BKN015 OVC040
     FM260100 28012G18KT P6SM BKN025
     FM260400 28010KT P6SM SCT025 BKN040
     FM260900 30010KT P6SM BKN020
     FM261400 32012KT P6SM BKN030=

USA.gov is the U.S. government's official web portal to all federal, state and local government web resources and services.